createdAt,value
2022-12-22T00:01:48.036Z,0.57
2022-12-22T00:04:18.824Z,0.67
2022-12-22T00:06:45.657Z,0.96
2022-12-22T00:09:13.571Z,1.37
2022-12-22T00:11:41.355Z,1.37
2022-12-22T00:14:09.312Z,1.28
2022-12-22T00:16:37.554Z,1.20
2022-12-22T00:19:12.920Z,0.77
2022-12-22T00:21:41.160Z,0.58
2022-12-22T00:24:09.159Z,0.43
2022-12-22T00:26:36.551Z,0.32
2022-12-22T00:29:03.946Z,0.26
2022-12-22T00:31:31.468Z,0.42
2022-12-22T00:34:00.849Z,0.50
2022-12-22T00:36:28.618Z,0.74
2022-12-22T00:38:56.844Z,0.96
2022-12-22T00:41:24.838Z,0.69
2022-12-22T00:43:51.679Z,0.49
2022-12-22T00:46:19.130Z,0.60
2022-12-22T00:48:46.460Z,0.76
2022-12-22T00:51:14.365Z,2.05
2022-12-22T00:53:41.106Z,2.38
2022-12-22T00:56:12.444Z,1.93
2022-12-22T00:58:39.332Z,2.08
2022-12-22T01:01:06.299Z,1.17
2022-12-22T01:03:33.145Z,0.67
2022-12-22T01:06:02.038Z,0.66
2022-12-22T01:08:28.989Z,0.38
2022-12-22T01:10:55.853Z,0.29
2022-12-22T01:13:24.220Z,0.34
2022-12-22T01:15:52.262Z,0.39
2022-12-22T01:18:19.487Z,1.23
2022-12-22T01:20:46.380Z,0.93
2022-12-22T01:23:14.349Z,0.74
2022-12-22T01:25:41.125Z,1.03
2022-12-22T01:28:14.170Z,0.84
2022-12-22T01:30:43.602Z,0.64
2022-12-22T01:33:11.942Z,0.95
2022-12-22T01:35:38.753Z,0.64
2022-12-22T01:38:07.233Z,0.50
2022-12-22T01:40:34.023Z,0.40
2022-12-22T01:43:02.094Z,0.45
2022-12-22T01:45:31.602Z,0.59
2022-12-22T01:47:59.700Z,0.51
2022-12-22T01:50:30.171Z,0.51
2022-12-22T01:52:57.360Z,1.21
2022-12-22T01:55:25.793Z,1.15
2022-12-22T01:57:52.893Z,0.79
2022-12-22T02:00:22.980Z,0.75
2022-12-22T02:02:50.842Z,1.15
2022-12-22T02:05:22.785Z,1.13
2022-12-22T02:08:00.915Z,0.87
2022-12-22T02:10:45.988Z,0.71
2022-12-22T02:13:25.715Z,0.78
2022-12-22T02:16:01.669Z,0.80
2022-12-22T02:18:35.243Z,0.57
2022-12-22T02:21:06.226Z,0.54
2022-12-22T02:23:58.871Z,0.38
2022-12-22T02:26:32.179Z,0.29
2022-12-22T02:28:59.135Z,1.28
2022-12-22T02:31:34.675Z,1.05
2022-12-22T02:34:01.503Z,0.89
2022-12-22T02:36:46.955Z,1.11
2022-12-22T02:39:23.871Z,3.16
2022-12-22T02:42:04.531Z,3.58
2022-12-22T02:44:42.517Z,6.66
2022-12-22T02:47:18.046Z,4.02
2022-12-22T02:49:54.530Z,2.55
2022-12-22T02:52:29.836Z,1.64
2022-12-22T02:54:57.007Z,0.97
2022-12-22T02:57:25.814Z,1.07
2022-12-22T02:59:53.526Z,0.70
2022-12-22T03:02:21.703Z,0.98
2022-12-22T03:04:48.654Z,1.14
2022-12-22T03:07:18.173Z,0.99
2022-12-22T03:09:45.055Z,0.58
2022-12-22T03:12:15.323Z,0.55
2022-12-22T03:14:43.455Z,0.34
2022-12-22T03:17:10.300Z,0.51
2022-12-22T03:19:38.205Z,1.02
2022-12-22T03:22:09.637Z,0.64
2022-12-22T03:24:39.639Z,0.82
2022-12-22T03:27:07.209Z,0.98
2022-12-22T03:29:34.070Z,0.72
2022-12-22T03:32:04.949Z,0.51
2022-12-22T03:34:34.882Z,0.91
2022-12-22T03:37:01.956Z,0.58
2022-12-22T03:39:30.956Z,0.46
2022-12-22T03:41:59.044Z,0.71
2022-12-22T03:44:26.516Z,0.66
2022-12-22T03:46:53.588Z,0.62
2022-12-22T03:49:21.806Z,0.54
2022-12-22T03:51:50.512Z,0.48
2022-12-22T03:54:19.463Z,0.49
2022-12-22T03:56:47.006Z,0.81
2022-12-22T03:59:15.867Z,0.67
2022-12-22T04:04:19.687Z,0.43
2022-12-22T04:06:48.628Z,0.57
2022-12-22T04:09:15.533Z,0.74
2022-12-22T04:11:42.406Z,0.49
2022-12-22T04:14:09.220Z,0.35
2022-12-22T04:16:36.356Z,0.31
2022-12-22T04:19:05.951Z,0.43
2022-12-22T04:21:34.198Z,0.32
2022-12-22T04:24:02.672Z,0.45
2022-12-22T04:26:30.441Z,0.36
2022-12-22T04:28:57.434Z,0.29
2022-12-22T04:31:25.774Z,0.41
2022-12-22T04:33:52.595Z,0.70
2022-12-22T04:36:19.643Z,0.48
2022-12-22T04:38:47.839Z,0.35
2022-12-22T04:41:17.208Z,0.44
2022-12-22T04:43:43.947Z,0.55
2022-12-22T04:46:11.445Z,0.55
2022-12-22T04:48:40.214Z,0.65
2022-12-22T04:51:07.083Z,1.06
2022-12-22T04:53:33.958Z,1.00
2022-12-22T04:56:04.043Z,1.07
2022-12-22T04:58:34.936Z,0.64
2022-12-22T05:01:09.952Z,0.56
2022-12-22T05:03:38.706Z,0.49
2022-12-22T05:06:05.947Z,0.68
2022-12-22T05:08:33.195Z,1.81
2022-12-22T05:11:01.169Z,1.72
2022-12-22T05:13:29.273Z,2.66
2022-12-22T05:16:03.491Z,2.51
2022-12-22T05:18:31.464Z,2.17
2022-12-22T05:21:01.621Z,1.35
2022-12-22T05:23:29.925Z,1.31
2022-12-22T05:25:57.727Z,1.00
2022-12-22T05:28:24.603Z,0.70
2022-12-22T05:30:55.410Z,0.84
2022-12-22T05:33:32.401Z,0.82
2022-12-22T05:36:00.553Z,0.63
2022-12-22T05:38:27.550Z,0.43
2022-12-22T05:40:59.821Z,0.86
2022-12-22T05:43:30.290Z,1.52
2022-12-22T05:45:57.342Z,2.24
2022-12-22T05:48:30.853Z,2.57
2022-12-22T05:50:59.309Z,3.20
2022-12-22T05:53:26.195Z,2.93
2022-12-22T05:55:53.196Z,4.64
2022-12-22T05:58:19.991Z,4.79
2022-12-22T06:00:46.940Z,3.07
2022-12-22T06:03:13.843Z,2.26
2022-12-22T06:05:43.626Z,1.69
2022-12-22T06:08:10.373Z,1.00
2022-12-22T06:10:38.240Z,0.69
2022-12-22T06:13:05.015Z,0.71
2022-12-22T06:15:33.234Z,0.62
2022-12-22T06:18:00.176Z,0.49
2022-12-22T06:20:26.963Z,0.93
2022-12-22T06:22:58.471Z,0.59
2022-12-22T06:25:25.481Z,0.45
2022-12-22T06:27:54.620Z,0.64
2022-12-22T06:30:24.449Z,0.70
2022-12-22T06:32:54.860Z,0.50
2022-12-22T06:35:21.675Z,0.45
2022-12-22T06:37:48.736Z,0.35
2022-12-22T06:40:17.030Z,0.31
2022-12-22T06:42:56.917Z,0.25
2022-12-22T06:45:27.599Z,0.23
2022-12-22T06:47:58.152Z,0.27
2022-12-22T06:50:27.195Z,0.70
2022-12-22T06:52:55.684Z,0.89
2022-12-22T06:55:24.148Z,1.15
2022-12-22T06:57:51.463Z,2.08
2022-12-22T07:00:21.647Z,2.86
2022-12-22T07:02:51.048Z,1.72
2022-12-22T07:05:20.980Z,1.26
2022-12-22T07:07:47.837Z,0.76
2022-12-22T07:10:14.859Z,0.94
2022-12-22T07:12:43.148Z,0.60
2022-12-22T07:15:12.425Z,0.74
2022-12-22T07:17:41.458Z,0.70
2022-12-22T07:20:12.222Z,0.56
2022-12-22T07:22:39.062Z,0.39
2022-12-22T07:25:10.809Z,4.25
2022-12-22T07:27:46.706Z,8.59
2022-12-22T07:30:23.951Z,4.87
2022-12-22T07:32:50.944Z,2.79
2022-12-22T07:35:20.762Z,1.77
2022-12-22T07:37:51.290Z,1.26
2022-12-22T07:40:21.761Z,0.94
2022-12-22T07:42:50.280Z,0.64
2022-12-22T07:45:20.533Z,1.41
2022-12-22T07:47:50.764Z,1.99
2022-12-22T07:50:23.774Z,1.16
2022-12-22T07:52:51.447Z,0.71
2022-12-22T07:55:18.821Z,0.82
2022-12-22T07:57:46.474Z,1.09
2022-12-22T08:00:16.176Z,1.68
2022-12-22T08:02:49.445Z,1.88
2022-12-22T08:05:17.649Z,1.28
2022-12-22T08:07:48.805Z,1.22
2022-12-22T08:10:16.910Z,1.10
2022-12-22T08:12:46.067Z,1.26
2022-12-22T08:15:17.514Z,1.03
2022-12-22T08:17:45.768Z,1.42
2022-12-22T08:20:12.758Z,1.33
2022-12-22T08:22:39.884Z,1.47
2022-12-22T08:25:09.741Z,1.84
2022-12-22T08:27:41.705Z,1.43
2022-12-22T08:30:17.819Z,1.07
2022-12-22T08:32:49.651Z,1.12
2022-12-22T08:35:21.243Z,1.38
2022-12-22T08:37:51.242Z,1.21
2022-12-22T08:40:30.199Z,0.83
2022-12-22T08:43:02.571Z,0.55
2022-12-22T08:45:36.007Z,0.52
2022-12-22T08:48:04.782Z,1.23
2022-12-22T08:50:38.987Z,0.95
2022-12-22T08:53:23.714Z,0.85
2022-12-22T08:55:58.741Z,0.93
2022-12-22T08:58:25.618Z,0.84
2022-12-22T09:00:54.144Z,1.05
2022-12-22T09:03:23.925Z,0.83
2022-12-22T09:05:53.151Z,1.05
2022-12-22T09:08:22.418Z,1.02
2022-12-22T09:10:50.026Z,1.95
2022-12-22T09:13:19.513Z,2.26
2022-12-22T09:15:46.367Z,1.67
2022-12-22T09:18:18.679Z,1.94
2022-12-22T09:20:54.681Z,1.81
2022-12-22T09:23:24.076Z,1.65
2022-12-22T09:25:52.732Z,2.06
2022-12-22T09:28:26.430Z,1.83
2022-12-22T09:30:55.753Z,1.49
2022-12-22T09:33:31.680Z,1.34
2022-12-22T09:36:00.248Z,1.31
2022-12-22T09:38:33.238Z,1.41
2022-12-22T09:41:06.504Z,1.11
2022-12-22T09:43:36.030Z,0.89
2022-12-22T09:46:04.085Z,0.99
2022-12-22T09:48:39.037Z,1.29
2022-12-22T09:51:12.540Z,1.10
2022-12-22T09:53:40.434Z,0.97
2022-12-22T09:56:17.854Z,1.23
2022-12-22T09:58:47.382Z,1.03
2022-12-22T10:01:30.691Z,0.93
2022-12-22T10:04:07.557Z,1.94
2022-12-22T10:06:43.436Z,1.36
2022-12-22T10:09:46.176Z,1.34
2022-12-22T10:12:07.024Z,1.13
2022-12-22T10:14:37.810Z,0.99
2022-12-22T10:17:22.892Z,0.91
2022-12-22T10:19:52.342Z,0.97
2022-12-22T10:22:28.900Z,5.59
2022-12-22T10:24:57.407Z,7.18
2022-12-22T10:27:29.642Z,5.48
2022-12-22T10:30:19.240Z,3.17
2022-12-22T10:33:02.331Z,1.94
2022-12-22T10:35:47.763Z,1.28
2022-12-22T10:38:32.865Z,1.08
2022-12-22T10:41:05.805Z,0.82
2022-12-22T10:46:18.204Z,1.66
2022-12-22T10:48:45.332Z,1.61
2022-12-22T10:51:16.210Z,1.15
2022-12-22T10:53:56.104Z,0.94
2022-12-22T10:56:27.675Z,0.81
2022-12-22T10:58:56.586Z,0.82
2022-12-22T11:01:28.723Z,1.15
2022-12-22T11:03:56.015Z,0.89
2022-12-22T11:06:27.495Z,0.90
2022-12-22T11:09:23.747Z,1.09
2022-12-22T11:11:51.540Z,1.19
2022-12-22T11:14:27.577Z,1.07
2022-12-22T11:17:02.959Z,1.13
2022-12-22T11:19:54.472Z,1.33
2022-12-22T11:22:36.159Z,1.00
2022-12-22T11:25:21.848Z,0.81
2022-12-22T11:28:02.181Z,0.90
2022-12-22T11:30:36.508Z,0.80
2022-12-22T11:33:21.086Z,1.27
2022-12-22T11:36:00.092Z,1.99
2022-12-22T11:38:46.299Z,2.18
2022-12-22T11:41:26.536Z,1.66
2022-12-22T11:44:11.849Z,1.29
2022-12-22T11:46:47.645Z,1.16
2022-12-22T11:49:34.320Z,1.47
2022-12-22T11:52:34.594Z,1.46
2022-12-22T11:55:28.776Z,1.34
2022-12-22T11:58:27.861Z,1.49
2022-12-22T12:01:17.665Z,1.75
2022-12-22T12:04:15.543Z,2.35
2022-12-22T12:07:09.636Z,2.08
2022-12-22T12:10:06.449Z,1.73
2022-12-22T12:12:45.819Z,1.41
2022-12-22T12:15:28.107Z,1.33
2022-12-22T12:18:16.429Z,1.43
2022-12-22T12:20:59.185Z,1.71
2022-12-22T12:23:51.273Z,1.59
2022-12-22T12:26:25.046Z,1.63
2022-12-22T12:29:06.728Z,1.57
2022-12-22T12:31:41.996Z,1.56
2022-12-22T12:34:12.775Z,1.71
2022-12-22T12:36:45.855Z,1.77
2022-12-22T12:39:19.766Z,1.64
2022-12-22T12:42:00.035Z,1.59
2022-12-22T12:44:33.565Z,1.53
2022-12-22T12:47:23.920Z,1.26
2022-12-22T12:50:36.274Z,1.45
2022-12-22T12:53:10.272Z,1.14
2022-12-22T12:56:00.905Z,1.32
2022-12-22T12:58:51.907Z,1.39
2022-12-22T13:01:53.326Z,1.68
2022-12-22T13:05:09.752Z,1.24
2022-12-22T13:08:12.059Z,1.10
2022-12-22T13:10:43.313Z,0.92
2022-12-22T13:13:12.877Z,1.20
2022-12-22T13:15:41.574Z,1.36
2022-12-22T13:18:49.966Z,1.19
2022-12-22T13:24:26.564Z,1.16
2022-12-22T13:26:58.225Z,1.08
2022-12-22T13:29:36.122Z,0.86
2022-12-22T13:32:14.158Z,0.94
2022-12-22T13:35:04.859Z,0.85
2022-12-22T13:37:40.591Z,0.97
2022-12-22T13:40:12.756Z,0.98
2022-12-22T13:42:42.554Z,0.86
2022-12-22T13:45:27.140Z,1.03
2022-12-22T13:47:55.669Z,0.82
2022-12-22T13:50:28.346Z,0.83
2022-12-22T13:52:57.714Z,0.78
2022-12-22T13:55:28.393Z,0.86
2022-12-22T13:58:06.611Z,0.88
2022-12-22T14:00:36.049Z,1.00
2022-12-22T14:03:03.498Z,0.86
2022-12-22T14:05:33.658Z,0.85
2022-12-22T14:08:03.333Z,1.05
2022-12-22T14:10:39.896Z,1.15
2022-12-22T14:13:14.600Z,1.02
2022-12-22T14:15:42.342Z,0.97
2022-12-22T14:18:16.697Z,1.61
2022-12-22T14:23:20.663Z,1.56
2022-12-22T14:25:51.049Z,2.04
2022-12-22T14:28:23.485Z,1.80
2022-12-22T14:30:53.706Z,1.43
2022-12-22T14:33:31.073Z,1.39
2022-12-22T14:36:16.815Z,1.48
2022-12-22T14:38:47.154Z,2.15
2022-12-22T14:41:22.546Z,1.92
2022-12-22T14:43:50.940Z,1.57
2022-12-22T14:46:18.965Z,1.32
2022-12-22T14:48:47.483Z,1.46
2022-12-22T14:51:17.629Z,1.92
2022-12-22T14:53:49.263Z,1.51
2022-12-22T14:56:18.932Z,1.52
2022-12-22T14:58:48.663Z,1.49
2022-12-22T15:01:23.175Z,1.47
2022-12-22T15:04:00.943Z,1.17
2022-12-22T15:06:34.761Z,0.90
2022-12-22T15:10:03.594Z,1.20
2022-12-22T15:12:17.164Z,1.33
2022-12-22T15:14:47.838Z,1.25
2022-12-22T15:17:21.048Z,1.25
2022-12-22T15:19:49.005Z,0.92
2022-12-22T15:22:19.539Z,1.19
2022-12-22T15:24:46.919Z,2.16
2022-12-22T15:27:15.358Z,3.13
2022-12-22T15:29:45.571Z,3.76
2022-12-22T15:32:13.418Z,10.79
2022-12-22T15:34:43.365Z,21.68
2022-12-22T15:37:12.305Z,13.55
2022-12-22T15:39:40.728Z,8.56
2022-12-22T15:42:07.528Z,5.65
2022-12-22T15:44:39.215Z,3.10
2022-12-22T15:47:12.104Z,2.11
2022-12-22T15:49:39.624Z,1.36
2022-12-22T15:52:11.062Z,1.44
2022-12-22T15:54:37.814Z,1.33
2022-12-22T15:57:05.803Z,1.36
2022-12-22T15:59:34.093Z,1.18
2022-12-22T16:02:02.833Z,0.95
2022-12-22T16:04:30.496Z,0.67
2022-12-22T16:06:59.008Z,0.85
2022-12-22T16:09:28.841Z,0.55
2022-12-22T16:11:56.810Z,0.46
2022-12-22T16:14:24.537Z,0.33
2022-12-22T16:16:56.104Z,0.46
2022-12-22T16:19:24.331Z,0.38
2022-12-22T16:21:55.054Z,0.76
2022-12-22T16:24:27.805Z,0.63
2022-12-22T16:26:57.967Z,1.02
2022-12-22T16:29:25.678Z,0.94
2022-12-22T16:31:52.898Z,0.70
2022-12-22T16:34:21.777Z,0.51
2022-12-22T16:36:49.938Z,0.39
2022-12-22T16:39:20.134Z,0.30
2022-12-22T16:41:46.933Z,0.25
2022-12-22T16:47:17.428Z,0.32
2022-12-22T16:49:47.829Z,0.22
2022-12-22T16:52:21.402Z,0.51
2022-12-22T16:54:52.800Z,2.16
2022-12-22T16:57:22.892Z,1.24
2022-12-22T16:59:50.633Z,0.66
2022-12-22T17:02:22.322Z,1.20
2022-12-22T17:04:51.989Z,0.68
2022-12-22T17:07:20.798Z,0.44
2022-12-22T17:09:50.575Z,0.41
2022-12-22T17:12:19.470Z,0.36
2022-12-22T17:14:48.515Z,0.33
2022-12-22T17:17:16.162Z,0.32
2022-12-22T17:19:43.462Z,0.25
2022-12-22T17:22:23.521Z,1.82
2022-12-22T17:24:51.386Z,1.10
2022-12-22T17:27:23.997Z,0.83
2022-12-22T17:29:51.466Z,0.58
2022-12-22T17:32:20.924Z,0.94
2022-12-22T17:34:47.862Z,1.07
2022-12-22T17:37:16.254Z,0.87
2022-12-22T17:39:48.019Z,1.00
2022-12-22T17:42:22.807Z,0.72
2022-12-22T17:44:51.239Z,0.65
2022-12-22T17:47:25.160Z,0.44
2022-12-22T17:49:57.400Z,0.41
2022-12-22T17:52:24.987Z,0.41
2022-12-22T17:54:54.549Z,0.36
2022-12-22T17:57:25.868Z,0.25
2022-12-22T17:59:52.588Z,0.32
2022-12-22T18:02:21.818Z,0.37
2022-12-22T18:04:49.571Z,0.42
2022-12-22T18:07:21.870Z,0.42
2022-12-22T18:09:50.081Z,0.34
2022-12-22T18:12:21.520Z,0.34
2022-12-22T18:14:50.292Z,0.48
2022-12-22T18:17:28.597Z,0.48
2022-12-22T18:20:00.166Z,0.38
2022-12-22T18:22:29.152Z,1.16
2022-12-22T18:24:57.714Z,1.32
2022-12-22T18:27:25.835Z,1.02
2022-12-22T18:29:53.086Z,1.08
2022-12-22T18:32:27.100Z,1.15
2022-12-22T18:34:57.968Z,1.16
2022-12-22T18:37:24.709Z,0.88
2022-12-22T18:39:51.675Z,0.77
2022-12-22T18:42:20.949Z,1.65
2022-12-22T18:44:51.071Z,1.68
2022-12-22T18:47:18.100Z,2.09
2022-12-22T18:49:45.710Z,1.73
2022-12-22T18:52:18.265Z,1.40
2022-12-22T18:54:46.831Z,1.45
2022-12-22T18:57:16.743Z,0.82
2022-12-22T18:59:45.524Z,0.68
2022-12-22T19:02:22.000Z,0.43
2022-12-22T19:04:49.552Z,0.69
2022-12-22T19:07:18.688Z,0.55
2022-12-22T19:09:46.306Z,0.39
2022-12-22T19:12:14.981Z,0.45
2022-12-22T19:14:44.759Z,0.41
2022-12-22T19:17:14.258Z,0.33
2022-12-22T19:19:42.484Z,0.22
2022-12-22T19:22:12.474Z,0.29
2022-12-22T19:24:42.033Z,0.43
2022-12-22T19:27:17.147Z,0.27
2022-12-22T19:32:23.936Z,0.18
2022-12-22T19:34:52.370Z,0.20
2022-12-22T19:37:21.862Z,0.16
2022-12-22T19:39:50.033Z,0.24
2022-12-22T19:42:20.914Z,0.48
2022-12-22T19:44:48.356Z,0.36
2022-12-22T19:47:18.812Z,0.36
2022-12-22T19:49:46.655Z,0.31
2022-12-22T19:52:16.441Z,0.76
2022-12-22T19:54:44.530Z,0.71
2022-12-22T19:57:18.266Z,0.47
2022-12-22T19:59:47.569Z,0.30
2022-12-22T20:02:26.706Z,0.26
2022-12-22T20:04:54.453Z,0.80
2022-12-22T20:07:25.684Z,1.16
2022-12-22T20:09:53.147Z,0.67
2022-12-22T20:12:25.210Z,0.80
2022-12-22T20:14:53.068Z,1.41
2022-12-22T20:17:21.820Z,1.16
2022-12-22T20:19:49.688Z,1.29
2022-12-22T20:22:20.327Z,1.20
2022-12-22T20:24:51.832Z,1.02
2022-12-22T20:27:23.605Z,1.81
2022-12-22T20:29:50.674Z,1.24
2022-12-22T20:32:22.314Z,0.78
2022-12-22T20:34:54.015Z,0.46
2022-12-22T20:37:21.889Z,0.24
2022-12-22T20:39:58.759Z,0.31
2022-12-22T20:42:25.577Z,0.32
2022-12-22T20:45:02.333Z,0.32
2022-12-22T20:47:31.898Z,0.54
2022-12-22T20:50:00.356Z,0.53
2022-12-22T20:52:27.204Z,0.84
2022-12-22T20:54:56.068Z,0.84
2022-12-22T20:57:23.581Z,0.77
2022-12-22T20:59:56.112Z,0.59
2022-12-22T21:02:26.219Z,0.59
2022-12-22T21:04:53.340Z,0.69
2022-12-22T21:07:20.125Z,0.81
2022-12-22T21:09:47.017Z,0.92
2022-12-22T21:12:15.380Z,1.41
2022-12-22T21:14:43.545Z,1.09
2022-12-22T21:17:15.771Z,0.86
2022-12-22T21:19:42.680Z,1.03
2022-12-22T21:22:14.534Z,1.09
2022-12-22T21:24:41.418Z,1.64
2022-12-22T21:27:16.369Z,1.06
2022-12-22T21:29:44.833Z,0.98
2022-12-22T21:32:14.420Z,1.28
2022-12-22T21:34:41.516Z,0.91
2022-12-22T21:37:15.887Z,1.88
2022-12-22T21:39:43.136Z,1.99
2022-12-22T21:42:16.436Z,1.44
2022-12-22T21:44:47.280Z,0.95
2022-12-22T21:47:18.818Z,0.70
2022-12-22T21:49:46.018Z,0.63
2022-12-22T21:52:12.870Z,0.80
2022-12-22T21:54:39.941Z,0.94
2022-12-22T21:57:06.720Z,1.14
2022-12-22T21:59:33.681Z,0.70
2022-12-22T22:02:04.374Z,0.43
2022-12-22T22:04:31.223Z,0.32
2022-12-22T22:07:00.457Z,0.51
2022-12-22T22:09:27.271Z,0.41
2022-12-22T22:11:54.622Z,0.57
2022-12-22T22:14:21.836Z,1.47
2022-12-22T22:16:50.023Z,2.65
2022-12-22T22:19:18.338Z,1.59
2022-12-22T22:21:45.937Z,0.94
2022-12-22T22:24:14.552Z,0.62
2022-12-22T22:26:44.772Z,0.43
2022-12-22T22:29:11.831Z,0.56
2022-12-22T22:31:40.197Z,0.52
2022-12-22T22:34:07.084Z,0.85
2022-12-22T22:36:38.515Z,0.71
2022-12-22T22:39:05.758Z,1.52
2022-12-22T22:41:37.720Z,1.20
2022-12-22T22:44:11.534Z,1.59
2022-12-22T22:46:38.953Z,0.92
2022-12-22T22:49:06.966Z,1.21
2022-12-22T22:51:34.001Z,1.58
2022-12-22T22:54:02.230Z,1.45
2022-12-22T22:56:28.950Z,1.99
2022-12-22T22:58:56.099Z,3.84
2022-12-22T23:01:22.957Z,5.36
2022-12-22T23:03:50.088Z,4.54
2022-12-22T23:06:16.889Z,3.59
2022-12-22T23:08:45.946Z,2.48
2022-12-22T23:11:15.171Z,2.07
2022-12-22T23:13:42.657Z,1.76
2022-12-22T23:16:11.024Z,1.17
2022-12-22T23:18:38.433Z,1.18
2022-12-22T23:21:07.063Z,1.09
2022-12-22T23:23:34.404Z,1.17
2022-12-22T23:26:02.629Z,0.86
2022-12-22T23:28:30.856Z,1.00
2022-12-22T23:30:58.751Z,0.93
2022-12-22T23:33:25.656Z,0.59
2022-12-22T23:35:53.076Z,0.54
2022-12-22T23:38:20.707Z,0.92
2022-12-22T23:40:53.079Z,0.68
2022-12-22T23:43:21.583Z,0.66
2022-12-22T23:45:51.365Z,1.07
2022-12-22T23:48:18.855Z,1.96
2022-12-22T23:50:47.183Z,1.94
2022-12-22T23:53:14.465Z,1.17
2022-12-22T23:55:43.367Z,0.78
2022-12-22T23:58:11.664Z,0.50
